Time;durP1;ratioP1;P1;durP2;ratioP2;P2;SDS_P1;SDS_P2;PMS_P1;PMS_P2;Temp;Humidity;BMP_temperature;BMP_pressure;BME280_temperature;BME280_humidity;BME280_pressure;Samples;Min_cycle;Max_cycle;Signal;HPM_P1;HPM_P2
2022/03/30 00:01:54;;;;;;;65.70;20.27;;;;;;;;;;5016266;28;20022;-67
2022/03/30 00:04:19;;;;;;;78.55;21.95;;;;;;;;;;5020711;28;20716;-68
2022/03/30 00:06:44;;;;;;;82.70;22.38;;;;;;;;;;5017374;28;20130;-67
2022/03/30 00:09:09;;;;;;;77.70;21.55;;;;;;;;;;5023373;28;20021;-67
2022/03/30 00:11:35;;;;;;;74.80;22.30;;;;;;;;;;5017411;28;20099;-67
2022/03/30 00:14:00;;;;;;;87.15;22.20;;;;;;;;;;5020777;28;20017;-67
2022/03/30 00:16:25;;;;;;;75.68;20.27;;;;;;;;;;5018305;28;20103;-67
2022/03/30 00:18:50;;;;;;;74.28;22.40;;;;;;;;;;5023292;28;20122;-67
2022/03/30 00:21:16;;;;;;;77.95;20.73;;;;;;;;;;5022483;28;20270;-67
2022/03/30 00:23:41;;;;;;;75.93;21.67;;;;;;;;;;5017680;28;20029;-67
2022/03/30 00:26:07;;;;;;;78.55;22.38;;;;;;;;;;5017031;28;20105;-68
2022/03/30 00:28:32;;;;;;;82.72;22.77;;;;;;;;;;5022242;28;20067;-67
2022/03/30 00:30:58;;;;;;;82.88;22.85;;;;;;;;;;5018036;28;20430;-67
2022/03/30 00:33:23;;;;;;;79.55;22.42;;;;;;;;;;5027231;28;20061;-68
2022/03/30 00:35:49;;;;;;;81.10;23.88;;;;;;;;;;5023761;28;20528;-67
2022/03/30 00:38:14;;;;;;;80.35;22.48;;;;;;;;;;5019464;28;20386;-67
2022/03/30 00:40:39;;;;;;;100.55;24.02;;;;;;;;;;5021095;28;20036;-67
2022/03/30 00:43:05;;;;;;;91.68;24.48;;;;;;;;;;5018170;28;20499;-67
2022/03/30 00:45:30;;;;;;;83.75;21.67;;;;;;;;;;5015685;28;20087;-66
2022/03/30 00:47:55;;;;;;;91.28;24.23;;;;;;;;;;5017497;28;20617;-67
2022/03/30 00:50:22;;;;;;;93.93;23.93;;;;;;;;;;5021689;28;20258;-67
2022/03/30 00:52:50;;;;;;;100.63;24.00;;;;;;;;;;5017773;28;20745;-67
2022/03/30 00:55:17;;;;;;;92.55;24.70;;;;;;;;;;5017536;28;20025;-67
2022/03/30 00:57:43;;;;;;;88.38;20.98;;;;;;;;;;5019361;28;20018;-67
2022/03/30 01:00:09;;;;;;;95.68;25.80;;;;;;;;;;5022169;28;20044;-67
2022/03/30 01:02:37;;;;;;;91.68;23.85;;;;;;;;;;5016846;28;20034;-68
2022/03/30 01:05:03;;;;;;;88.97;23.15;;;;;;;;;;5022427;28;20029;-67
2022/03/30 01:07:28;;;;;;;90.88;24.67;;;;;;;;;;5017079;28;20029;-67
2022/03/30 01:09:53;;;;;;;84.95;22.95;;;;;;;;;;5022884;28;20368;-67
2022/03/30 01:12:18;;;;;;;92.60;23.85;;;;;;;;;;5028124;28;20262;-67
2022/03/30 01:14:44;;;;;;;90.77;23.50;;;;;;;;;;5021139;28;20384;-68
2022/03/30 01:17:09;;;;;;;103.95;22.98;;;;;;;;;;5021350;28;20272;-67
2022/03/30 01:19:34;;;;;;;105.72;24.80;;;;;;;;;;5024725;28;20157;-68
2022/03/30 01:21:59;;;;;;;85.85;23.50;;;;;;;;;;5016802;28;20267;-67
2022/03/30 01:24:25;;;;;;;81.47;22.17;;;;;;;;;;5017646;28;20029;-67
2022/03/30 01:26:50;;;;;;;93.85;23.67;;;;;;;;;;5021182;28;20378;-67
2022/03/30 01:34:44;;;;;;;93.97;23.30;;;;;;;;;;5022997;28;20125;-67
2022/03/30 01:37:09;;;;;;;87.93;22.48;;;;;;;;;;5013016;28;20018;-67
2022/03/30 01:39:35;;;;;;;76.88;22.35;;;;;;;;;;5020037;28;20443;-68
2022/03/30 01:42:00;;;;;;;89.00;23.15;;;;;;;;;;5019335;28;20108;-67
2022/03/30 01:44:25;;;;;;;81.13;23.58;;;;;;;;;;5018874;28;20031;-67
2022/03/30 01:46:51;;;;;;;96.60;24.63;;;;;;;;;;5022494;28;20104;-67
2022/03/30 01:49:21;;;;;;;95.47;25.42;;;;;;;;;;5016596;28;20025;-67
2022/03/30 01:51:46;;;;;;;105.65;24.45;;;;;;;;;;5025279;28;20045;-67
2022/03/30 01:54:11;;;;;;;93.03;25.40;;;;;;;;;;5016979;28;20097;-67
2022/03/30 01:56:36;;;;;;;83.35;22.63;;;;;;;;;;5023993;28;20033;-67
2022/03/30 01:59:01;;;;;;;102.68;24.58;;;;;;;;;;5026246;28;20324;-67
2022/03/30 02:01:27;;;;;;;87.07;22.40;;;;;;;;;;5021573;28;20264;-68
2022/03/30 02:03:52;;;;;;;86.53;23.73;;;;;;;;;;5019630;28;20324;-67
2022/03/30 02:06:17;;;;;;;92.88;24.67;;;;;;;;;;5021910;28;20039;-67
2022/03/30 02:08:42;;;;;;;91.65;23.65;;;;;;;;;;5023252;28;20816;-67
2022/03/30 02:11:07;;;;;;;82.00;22.37;;;;;;;;;;5021708;28;20479;-67
2022/03/30 02:13:32;;;;;;;81.90;22.83;;;;;;;;;;5022428;28;20258;-67
2022/03/30 02:15:58;;;;;;;95.63;25.37;;;;;;;;;;5023087;28;20018;-67
2022/03/30 02:18:23;;;;;;;83.93;21.23;;;;;;;;;;5022492;28;21134;-67
2022/03/30 02:20:48;;;;;;;89.28;23.27;;;;;;;;;;5029451;28;20037;-67
2022/03/30 02:23:14;;;;;;;100.63;23.07;;;;;;;;;;5021010;28;20343;-67
2022/03/30 02:25:39;;;;;;;85.03;23.35;;;;;;;;;;5026766;28;20271;-67
2022/03/30 02:28:04;;;;;;;88.10;20.27;;;;;;;;;;5018670;28;20026;-68
2022/03/30 02:30:29;;;;;;;88.45;22.88;;;;;;;;;;5025470;28;20791;-67
2022/03/30 02:32:55;;;;;;;99.50;23.27;;;;;;;;;;5022644;28;20341;-67
2022/03/30 02:35:20;;;;;;;84.90;22.40;;;;;;;;;;5023154;28;20547;-67
2022/03/30 02:37:45;;;;;;;88.32;21.67;;;;;;;;;;5017331;28;20033;-67
2022/03/30 02:40:11;;;;;;;94.43;21.02;;;;;;;;;;5020479;28;20065;-67
2022/03/30 02:42:36;;;;;;;98.07;22.52;;;;;;;;;;5024104;28;20267;-67
2022/03/30 02:45:01;;;;;;;94.55;22.08;;;;;;;;;;5016478;28;20038;-67
2022/03/30 02:50:10;;;;;;;93.57;21.02;;;;;;;;;;5023674;28;20107;-67
2022/03/30 02:52:35;;;;;;;82.78;21.88;;;;;;;;;;5021103;28;20050;-67
2022/03/30 02:55:00;;;;;;;91.45;22.88;;;;;;;;;;5013081;28;20030;-67
2022/03/30 02:57:26;;;;;;;95.10;22.07;;;;;;;;;;5017410;28;20510;-68
2022/03/30 02:59:51;;;;;;;88.93;20.57;;;;;;;;;;5024858;28;20349;-67
2022/03/30 03:02:16;;;;;;;94.03;22.92;;;;;;;;;;5020500;28;20606;-67
2022/03/30 03:04:41;;;;;;;86.00;21.38;;;;;;;;;;5023232;28;20294;-67
2022/03/30 03:07:07;;;;;;;79.45;20.95;;;;;;;;;;5023461;28;20301;-67
2022/03/30 03:09:32;;;;;;;97.30;21.75;;;;;;;;;;5020240;28;20467;-67
2022/03/30 03:11:58;;;;;;;91.28;22.70;;;;;;;;;;5024110;28;20053;-67
2022/03/30 03:14:23;;;;;;;90.90;22.35;;;;;;;;;;5023216;28;20064;-67
2022/03/30 03:16:49;;;;;;;98.82;23.17;;;;;;;;;;5022888;28;20614;-68
2022/03/30 03:19:14;;;;;;;83.50;22.35;;;;;;;;;;5016531;28;20029;-67
2022/03/30 03:21:39;;;;;;;83.68;20.75;;;;;;;;;;5016773;28;20550;-67
2022/03/30 03:24:05;;;;;;;89.15;22.25;;;;;;;;;;5015705;28;20113;-67
2022/03/30 03:26:30;;;;;;;92.68;22.67;;;;;;;;;;5021638;28;20266;-67
2022/03/30 03:28:55;;;;;;;86.90;22.43;;;;;;;;;;5023360;28;20041;-68
2022/03/30 03:31:20;;;;;;;87.60;25.03;;;;;;;;;;5019427;28;20278;-68
2022/03/30 03:33:45;;;;;;;94.05;23.00;;;;;;;;;;5020077;28;20313;-68
2022/03/30 03:36:11;;;;;;;82.10;22.27;;;;;;;;;;5022652;28;20040;-67
2022/03/30 03:38:36;;;;;;;104.65;24.83;;;;;;;;;;5021969;28;20664;-67
2022/03/30 03:41:01;;;;;;;107.00;24.42;;;;;;;;;;5022845;28;20029;-67
2022/03/30 03:43:26;;;;;;;96.25;23.83;;;;;;;;;;5019904;28;20026;-67
2022/03/30 03:45:51;;;;;;;91.68;21.85;;;;;;;;;;5015617;28;20112;-67
2022/03/30 03:48:17;;;;;;;89.55;24.02;;;;;;;;;;5027685;28;20013;-68
2022/03/30 03:50:43;;;;;;;111.15;24.27;;;;;;;;;;5018150;28;20283;-67
2022/03/30 03:53:08;;;;;;;98.22;23.10;;;;;;;;;;5023799;28;20036;-67
2022/03/30 03:55:34;;;;;;;97.43;22.93;;;;;;;;;;5022686;28;20481;-67
2022/03/30 03:58:00;;;;;;;93.28;21.85;;;;;;;;;;5022773;28;20263;-67
2022/03/30 04:00:25;;;;;;;93.70;21.42;;;;;;;;;;5020289;28;20071;-67
2022/03/30 04:02:50;;;;;;;85.13;21.00;;;;;;;;;;5023005;28;20029;-67
2022/03/30 04:05:16;;;;;;;100.82;21.38;;;;;;;;;;5017544;28;20351;-67
2022/03/30 04:07:41;;;;;;;87.97;20.80;;;;;;;;;;5015368;28;20365;-67
2022/03/30 04:10:07;;;;;;;93.72;23.35;;;;;;;;;;5017379;28;20118;-67
2022/03/30 04:12:33;;;;;;;84.45;22.38;;;;;;;;;;5020736;28;20018;-68
2022/03/30 04:14:58;;;;;;;108.18;23.92;;;;;;;;;;5024580;28;20299;-67
2022/03/30 04:17:23;;;;;;;96.38;22.38;;;;;;;;;;5029240;28;20484;-67
2022/03/30 04:19:48;;;;;;;95.70;24.00;;;;;;;;;;5020023;28;20262;-67
2022/03/30 04:22:14;;;;;;;95.50;22.45;;;;;;;;;;5025321;28;20267;-68
2022/03/30 04:24:40;;;;;;;84.88;21.77;;;;;;;;;;5022667;28;20038;-67
2022/03/30 04:27:05;;;;;;;89.30;20.25;;;;;;;;;;5018468;28;20044;-67
2022/03/30 04:29:30;;;;;;;104.03;22.30;;;;;;;;;;5020372;28;20109;-67
2022/03/30 04:31:55;;;;;;;101.00;22.13;;;;;;;;;;5021019;28;20270;-67
2022/03/30 04:34:21;;;;;;;91.40;22.80;;;;;;;;;;5022096;28;20112;-67
2022/03/30 04:36:46;;;;;;;85.03;22.30;;;;;;;;;;5023522;28;20024;-67
2022/03/30 04:39:11;;;;;;;87.23;21.73;;;;;;;;;;5029531;28;20033;-67
2022/03/30 04:41:36;;;;;;;84.30;21.50;;;;;;;;;;5021040;28;20736;-67
2022/03/30 04:44:01;;;;;;;86.18;21.45;;;;;;;;;;5019962;28;20746;-67
2022/03/30 04:46:26;;;;;;;81.53;19.58;;;;;;;;;;5026091;28;20267;-67
2022/03/30 04:48:52;;;;;;;77.47;19.05;;;;;;;;;;5022637;28;20080;-67
2022/03/30 04:51:17;;;;;;;99.65;22.17;;;;;;;;;;5027814;28;20017;-67
2022/03/30 04:53:42;;;;;;;90.30;22.20;;;;;;;;;;5019393;28;20029;-68
2022/03/30 04:56:07;;;;;;;80.57;20.88;;;;;;;;;;5019047;28;20285;-68
2022/03/30 04:58:33;;;;;;;87.50;20.48;;;;;;;;;;5022067;28;20538;-68
2022/03/30 05:00:58;;;;;;;78.10;20.90;;;;;;;;;;5021113;28;20254;-68
2022/03/30 05:03:23;;;;;;;83.97;21.17;;;;;;;;;;5023475;28;20032;-67
2022/03/30 05:05:48;;;;;;;82.75;20.38;;;;;;;;;;5017681;28;20791;-67
2022/03/30 05:08:14;;;;;;;90.57;19.08;;;;;;;;;;5016877;28;20606;-67
2022/03/30 05:10:39;;;;;;;87.15;21.35;;;;;;;;;;5022439;28;20022;-67
2022/03/30 05:13:05;;;;;;;80.63;19.50;;;;;;;;;;5023185;28;20630;-67
2022/03/30 05:15:31;;;;;;;89.75;18.90;;;;;;;;;;5018000;28;21133;-67
2022/03/30 05:17:57;;;;;;;75.78;18.15;;;;;;;;;;5027410;28;20076;-67
2022/03/30 05:20:22;;;;;;;86.82;19.90;;;;;;;;;;5028490;28;20109;-67
2022/03/30 05:22:47;;;;;;;87.05;20.73;;;;;;;;;;5033892;28;20029;-67
2022/03/30 05:25:15;;;;;;;75.82;19.00;;;;;;;;;;5030285;28;20104;-67
2022/03/30 05:27:40;;;;;;;87.25;21.00;;;;;;;;;;5025943;28;20033;-67
2022/03/30 05:30:07;;;;;;;82.13;19.33;;;;;;;;;;5026333;28;20048;-67
2022/03/30 05:32:32;;;;;;;90.90;21.38;;;;;;;;;;5025850;28;20479;-67
2022/03/30 05:34:57;;;;;;;75.80;19.67;;;;;;;;;;5026247;28;20029;-67
2022/03/30 05:37:24;;;;;;;87.22;22.30;;;;;;;;;;5019064;28;20025;-68
2022/03/30 05:39:49;;;;;;;76.20;20.35;;;;;;;;;;5019750;28;20104;-67
2022/03/30 05:42:14;;;;;;;89.03;21.35;;;;;;;;;;5016372;28;20048;-67
2022/03/30 05:44:40;;;;;;;91.60;21.77;;;;;;;;;;5024930;28;20018;-67
2022/03/30 05:47:07;;;;;;;82.15;19.10;;;;;;;;;;5024740;28;20109;-67
2022/03/30 05:49:32;;;;;;;85.38;21.60;;;;;;;;;;5027469;28;20021;-68
2022/03/30 05:51:57;;;;;;;96.28;20.92;;;;;;;;;;5026986;28;20105;-67
2022/03/30 05:54:22;;;;;;;75.82;19.70;;;;;;;;;;5025492;28;20109;-67
2022/03/30 05:57:02;;;;;;;75.05;18.80;;;;;;;;;;5023530;28;20456;-67
2022/03/30 05:59:29;;;;;;;94.25;20.65;;;;;;;;;;5027496;28;20267;-67
2022/03/30 06:01:54;;;;;;;88.15;20.52;;;;;;;;;;5020205;28;20460;-67
2022/03/30 06:04:19;;;;;;;88.55;21.13;;;;;;;;;;5032307;28;20029;-67
2022/03/30 06:06:45;;;;;;;86.25;20.65;;;;;;;;;;5023780;28;20033;-68
2022/03/30 06:09:10;;;;;;;79.07;19.73;;;;;;;;;;5028775;28;20029;-67
2022/03/30 06:11:35;;;;;;;88.05;20.48;;;;;;;;;;5027337;28;20259;-67
2022/03/30 06:14:00;;;;;;;90.30;22.23;;;;;;;;;;5027658;28;20029;-67
2022/03/30 06:16:26;;;;;;;98.22;22.92;;;;;;;;;;5022593;28;20108;-67
2022/03/30 06:18:52;;;;;;;104.45;22.02;;;;;;;;;;5024139;28;20824;-67
2022/03/30 06:21:17;;;;;;;100.05;22.38;;;;;;;;;;5023866;28;20101;-67
2022/03/30 06:23:43;;;;;;;103.95;23.15;;;;;;;;;;5029981;28;20035;-67
2022/03/30 06:26:08;;;;;;;89.57;23.90;;;;;;;;;;5016640;28;20080;-67
2022/03/30 06:28:33;;;;;;;100.88;26.08;;;;;;;;;;5024667;28;20036;-67
2022/03/30 06:30:58;;;;;;;105.88;25.30;;;;;;;;;;5027519;28;20029;-67
2022/03/30 06:33:23;;;;;;;88.25;22.35;;;;;;;;;;5024433;28;20029;-67
2022/03/30 06:35:49;;;;;;;86.95;24.00;;;;;;;;;;5025828;28;20033;-67
2022/03/30 06:38:14;;;;;;;95.30;23.77;;;;;;;;;;5025123;28;20690;-66
2022/03/30 06:40:39;;;;;;;93.75;22.08;;;;;;;;;;5027370;28;20274;-67
2022/03/30 06:43:04;;;;;;;97.03;22.27;;;;;;;;;;5026398;28;20033;-67
2022/03/30 06:45:30;;;;;;;103.63;24.23;;;;;;;;;;5024659;28;20302;-67
2022/03/30 06:47:55;;;;;;;104.90;23.27;;;;;;;;;;5020449;28;20067;-66
2022/03/30 06:50:20;;;;;;;99.57;24.57;;;;;;;;;;5019899;28;20581;-67
2022/03/30 06:52:46;;;;;;;97.95;22.25;;;;;;;;;;5024308;28;20348;-67
2022/03/30 06:55:12;;;;;;;85.07;21.17;;;;;;;;;;5024950;28;20026;-67
2022/03/30 06:57:38;;;;;;;87.88;22.17;;;;;;;;;;5025411;28;20033;-68
2022/03/30 07:00:04;;;;;;;101.47;24.95;;;;;;;;;;5019613;28;20415;-67
2022/03/30 07:02:29;;;;;;;93.97;22.05;;;;;;;;;;5020774;28;20026;-68
2022/03/30 07:04:55;;;;;;;115.63;24.20;;;;;;;;;;5021598;28;20025;-67
2022/03/30 07:10:16;;;;;;;96.25;22.02;;;;;;;;;;5026116;28;20312;-67
2022/03/30 07:12:48;;;;;;;82.03;21.92;;;;;;;;;;5026453;28;20036;-67
2022/03/30 07:15:15;;;;;;;88.25;21.58;;;;;;;;;;5023008;28;20033;-68
2022/03/30 07:17:46;;;;;;;95.38;20.73;;;;;;;;;;5024618;28;20049;-67
2022/03/30 07:20:11;;;;;;;79.90;20.10;;;;;;;;;;5025596;28;20013;-68
2022/03/30 07:22:37;;;;;;;83.07;22.20;;;;;;;;;;5025227;28;20467;-68
2022/03/30 07:25:02;;;;;;;91.68;23.42;;;;;;;;;;5021227;28;20129;-67
2022/03/30 07:27:28;;;;;;;86.65;22.00;;;;;;;;;;5022311;28;20410;-67
2022/03/30 07:29:53;;;;;;;98.15;23.73;;;;;;;;;;5014262;28;20022;-67
2022/03/30 07:32:19;;;;;;;74.67;18.13;;;;;;;;;;5013373;28;20111;-67
2022/03/30 07:34:45;;;;;;;92.15;21.88;;;;;;;;;;5018851;28;20289;-69
2022/03/30 07:37:10;;;;;;;86.70;22.80;;;;;;;;;;5014322;28;20026;-67
2022/03/30 07:39:35;;;;;;;88.78;22.98;;;;;;;;;;5023800;28;20044;-68
2022/03/30 07:42:00;;;;;;;94.97;23.30;;;;;;;;;;5022552;28;20041;-68
2022/03/30 07:44:26;;;;;;;82.67;22.60;;;;;;;;;;5019226;28;20271;-68
2022/03/30 07:46:51;;;;;;;92.72;23.90;;;;;;;;;;5013244;28;20305;-69
2022/03/30 07:49:17;;;;;;;96.25;23.65;;;;;;;;;;5023414;28;20025;-69
2022/03/30 07:51:42;;;;;;;98.30;23.02;;;;;;;;;;5017879;28;20028;-68
2022/03/30 07:54:08;;;;;;;87.75;22.38;;;;;;;;;;5016761;28;20321;-67
2022/03/30 07:56:34;;;;;;;86.33;22.57;;;;;;;;;;5019554;28;20036;-66
2022/03/30 07:59:00;;;;;;;69.57;20.27;;;;;;;;;;5020113;28;20044;-67
2022/03/30 08:01:25;;;;;;;88.90;20.85;;;;;;;;;;5017735;28;20420;-67
2022/03/30 08:03:50;;;;;;;89.60;20.48;;;;;;;;;;5024515;28;20062;-68
2022/03/30 08:06:15;;;;;;;78.10;20.57;;;;;;;;;;5012204;28;20469;-67
2022/03/30 08:08:41;;;;;;;79.53;19.33;;;;;;;;;;5024301;28;20666;-67
2022/03/30 08:11:06;;;;;;;91.20;21.33;;;;;;;;;;5029994;28;20472;-67
2022/03/30 08:13:31;;;;;;;73.68;21.75;;;;;;;;;;5034443;28;20254;-67
2022/03/30 08:15:56;;;;;;;70.28;17.52;;;;;;;;;;5018933;28;20040;-67
2022/03/30 08:18:21;;;;;;;67.17;18.50;;;;;;;;;;5022975;28;20045;-68
2022/03/30 08:23:30;;;;;;;80.68;21.73;;;;;;;;;;5021960;28;20029;-67
2022/03/30 08:25:55;;;;;;;75.13;20.23;;;;;;;;;;5020034;28;20017;-67
2022/03/30 08:28:21;;;;;;;79.60;22.50;;;;;;;;;;5020146;28;20071;-67
2022/03/30 08:30:48;;;;;;;71.22;20.63;;;;;;;;;;5026785;28;20266;-67
2022/03/30 08:33:15;;;;;;;70.00;20.83;;;;;;;;;;5025154;28;20017;-67
2022/03/30 08:35:40;;;;;;;77.10;21.00;;;;;;;;;;5022199;28;20045;-67
2022/03/30 08:38:05;;;;;;;85.07;21.17;;;;;;;;;;5019099;28;20289;-67
2022/03/30 08:40:30;;;;;;;80.18;24.10;;;;;;;;;;5025659;28;20025;-67
2022/03/30 08:42:56;;;;;;;75.03;19.30;;;;;;;;;;5024338;28;20056;-67
2022/03/30 08:45:21;;;;;;;75.57;21.95;;;;;;;;;;5021681;28;20022;-67
2022/03/30 08:47:47;;;;;;;81.93;20.27;;;;;;;;;;5025079;28;20116;-67
2022/03/30 08:50:12;;;;;;;84.72;21.55;;;;;;;;;;5025383;28;20043;-66
2022/03/30 08:52:37;;;;;;;67.05;18.33;;;;;;;;;;5020562;28;20037;-68
2022/03/30 08:55:02;;;;;;;79.32;21.02;;;;;;;;;;5029478;28;20056;-68
2022/03/30 08:57:28;;;;;;;75.90;21.80;;;;;;;;;;5032265;28;20148;-67
2022/03/30 09:00:13;;;;;;;79.28;19.60;;;;;;;;;;5029735;28;20026;-67
2022/03/30 09:02:43;;;;;;;77.82;21.02;;;;;;;;;;5021826;28;20053;-67
2022/03/30 09:05:12;;;;;;;86.47;22.98;;;;;;;;;;5027125;28;20029;-67
2022/03/30 09:07:38;;;;;;;80.07;20.08;;;;;;;;;;5027360;28;20033;-67
2022/03/30 09:10:03;;;;;;;68.45;19.25;;;;;;;;;;5028830;28;20029;-68
2022/03/30 09:12:29;;;;;;;84.07;20.98;;;;;;;;;;5026262;28;20025;-67
2022/03/30 09:15:02;;;;;;;81.65;21.70;;;;;;;;;;5033868;28;20034;-66
2022/03/30 09:17:35;;;;;;;73.72;18.75;;;;;;;;;;5019983;28;20021;-67
2022/03/30 09:20:02;;;;;;;85.05;19.80;;;;;;;;;;5027340;28;20034;-66
2022/03/30 09:22:28;;;;;;;61.38;18.35;;;;;;;;;;5025120;28;20079;-66
2022/03/30 09:24:54;;;;;;;69.57;19.42;;;;;;;;;;5016500;28;20506;-66
2022/03/30 09:27:22;;;;;;;70.95;21.25;;;;;;;;;;5028288;28;20100;-66
2022/03/30 09:29:47;;;;;;;69.45;19.95;;;;;;;;;;5027872;28;20537;-66
2022/03/30 09:32:13;;;;;;;73.18;20.10;;;;;;;;;;5027566;28;20029;-66
2022/03/30 09:34:49;;;;;;;77.43;21.65;;;;;;;;;;5025970;28;20083;-66
2022/03/30 09:37:15;;;;;;;73.53;20.58;;;;;;;;;;5025185;28;20100;-66
2022/03/30 09:39:41;;;;;;;69.70;21.15;;;;;;;;;;5028278;28;20056;-66
2022/03/30 09:42:08;;;;;;;82.13;21.88;;;;;;;;;;5027208;28;20097;-66
2022/03/30 09:44:53;;;;;;;75.07;19.70;;;;;;;;;;5027451;28;20352;-66
2022/03/30 09:47:19;;;;;;;73.72;22.60;;;;;;;;;;5027844;28;20203;-66
2022/03/30 09:49:54;;;;;;;78.28;18.95;;;;;;;;;;5025271;28;20045;-66
2022/03/30 09:52:22;;;;;;;60.25;18.15;;;;;;;;;;5024823;28;20065;-66
2022/03/30 09:54:49;;;;;;;58.55;17.65;;;;;;;;;;5025866;28;20017;-66
2022/03/30 09:57:20;;;;;;;58.78;18.35;;;;;;;;;;5027325;28;20472;-66
2022/03/30 09:59:55;;;;;;;64.03;18.00;;;;;;;;;;5026932;28;20474;-66
2022/03/30 10:02:20;;;;;;;62.10;17.58;;;;;;;;;;5025131;28;20030;-66
2022/03/30 10:04:46;;;;;;;61.03;20.17;;;;;;;;;;5027193;28;20359;-66
2022/03/30 10:07:11;;;;;;;53.58;17.48;;;;;;;;;;5027537;28;20028;-66
2022/03/30 10:09:39;;;;;;;55.63;16.52;;;;;;;;;;5027865;28;20415;-66
2022/03/30 10:12:05;;;;;;;70.65;19.92;;;;;;;;;;5032424;28;20017;-66
2022/03/30 10:14:30;;;;;;;65.72;19.73;;;;;;;;;;5027091;28;20017;-66
2022/03/30 10:16:55;;;;;;;60.42;16.67;;;;;;;;;;5019081;28;20065;-66
2022/03/30 10:19:20;;;;;;;59.97;18.10;;;;;;;;;;5019976;28;20021;-66
2022/03/30 10:22:04;;;;;;;56.83;17.55;;;;;;;;;;5022485;28;20116;-66
2022/03/30 10:24:49;;;;;;;62.60;17.92;;;;;;;;;;5020815;28;20029;-66
2022/03/30 10:27:20;;;;;;;59.95;15.98;;;;;;;;;;5026450;28;20030;-66
2022/03/30 10:29:48;;;;;;;56.53;17.60;;;;;;;;;;5027214;28;20341;-66
2022/03/30 10:32:17;;;;;;;52.28;16.35;;;;;;;;;;5028898;28;20485;-66
2022/03/30 10:34:56;;;;;;;57.38;17.02;;;;;;;;;;5025069;28;20110;-67
2022/03/30 10:37:24;;;;;;;54.25;16.65;;;;;;;;;;5025369;28;20507;-66
2022/03/30 10:39:53;;;;;;;72.82;17.40;;;;;;;;;;5027395;28;20056;-66
2022/03/30 10:42:19;;;;;;;58.85;17.73;;;;;;;;;;5025174;28;20044;-66
2022/03/30 10:44:46;;;;;;;59.45;20.35;;;;;;;;;;5025552;28;20064;-66
2022/03/30 10:47:18;;;;;;;60.17;17.50;;;;;;;;;;5026367;28;20445;-66
2022/03/30 10:49:47;;;;;;;64.93;17.90;;;;;;;;;;5026622;28;20025;-66
2022/03/30 10:52:25;;;;;;;54.47;18.38;;;;;;;;;;5026259;28;20438;-66
2022/03/30 10:54:55;;;;;;;55.72;17.80;;;;;;;;;;5019505;28;20017;-66
2022/03/30 10:57:39;;;;;;;60.58;17.85;;;;;;;;;;5023599;28;20052;-67
2022/03/30 11:00:15;;;;;;;57.00;18.92;;;;;;;;;;5024664;28;20108;-66
2022/03/30 11:02:40;;;;;;;50.28;16.02;;;;;;;;;;5022650;28;20060;-67
2022/03/30 11:05:09;;;;;;;54.92;17.05;;;;;;;;;;5026772;28;20056;-66
2022/03/30 11:07:34;;;;;;;64.70;21.52;;;;;;;;;;5024641;28;20027;-66
2022/03/30 11:10:18;;;;;;;57.35;17.27;;;;;;;;;;5022076;28;20022;-67
2022/03/30 11:12:59;;;;;;;53.03;16.33;;;;;;;;;;5027672;28;20033;-66
2022/03/30 11:15:24;;;;;;;59.63;18.30;;;;;;;;;;5021450;28;20100;-66
2022/03/30 11:17:49;;;;;;;50.80;17.10;;;;;;;;;;5025830;28;20570;-66
2022/03/30 11:20:16;;;;;;;53.55;17.02;;;;;;;;;;5022155;28;20021;-66
2022/03/30 11:22:44;;;;;;;53.17;15.90;;;;;;;;;;5022383;28;20029;-66
2022/03/30 11:25:11;;;;;;;55.25;17.42;;;;;;;;;;5026362;28;20467;-66
2022/03/30 11:27:36;;;;;;;49.00;16.65;;;;;;;;;;5035078;28;20037;-66
2022/03/30 11:30:11;;;;;;;43.63;17.17;;;;;;;;;;5024364;28;20044;-66
2022/03/30 11:32:37;;;;;;;63.72;18.45;;;;;;;;;;5019029;28;20558;-66
2022/03/30 11:35:07;;;;;;;60.75;17.70;;;;;;;;;;5026059;28;20068;-66
2022/03/30 11:37:56;;;;;;;49.13;16.80;;;;;;;;;;5021966;28;20483;-66
2022/03/30 11:40:22;;;;;;;47.28;17.70;;;;;;;;;;5019860;28;20041;-66
2022/03/30 11:42:52;;;;;;;47.63;18.08;;;;;;;;;;5025099;28;20160;-67
2022/03/30 11:45:20;;;;;;;43.63;16.60;;;;;;;;;;5024304;28;20124;-66
2022/03/30 11:47:53;;;;;;;51.15;18.48;;;;;;;;;;5023236;28;20013;-66
2022/03/30 11:50:38;;;;;;;47.58;17.65;;;;;;;;;;5024637;28;20063;-66
2022/03/30 11:53:05;;;;;;;46.08;17.13;;;;;;;;;;5024949;28;20472;-67
2022/03/30 11:55:31;;;;;;;49.15;16.55;;;;;;;;;;5024541;28;20036;-66
2022/03/30 11:57:57;;;;;;;43.95;16.05;;;;;;;;;;5024643;28;20025;-66
2022/03/30 12:00:23;;;;;;;45.45;15.57;;;;;;;;;;5021550;28;20021;-66
2022/03/30 12:02:49;;;;;;;38.15;15.65;;;;;;;;;;5021980;28;20514;-66
2022/03/30 12:05:14;;;;;;;39.70;14.30;;;;;;;;;;5022694;28;20025;-66
2022/03/30 12:07:39;;;;;;;42.40;16.07;;;;;;;;;;5021763;28;20025;-66
2022/03/30 12:10:06;;;;;;;44.80;15.50;;;;;;;;;;5022481;28;20083;-67
2022/03/30 12:12:35;;;;;;;37.28;14.63;;;;;;;;;;5016488;28;20435;-67
2022/03/30 12:15:01;;;;;;;44.67;14.18;;;;;;;;;;5021300;28;20057;-67
2022/03/30 12:17:26;;;;;;;37.92;15.18;;;;;;;;;;5023485;28;20552;-67
2022/03/30 12:19:52;;;;;;;33.65;12.27;;;;;;;;;;5022232;28;20159;-66
2022/03/30 12:22:18;;;;;;;49.08;13.88;;;;;;;;;;5021438;28;20231;-66
2022/03/30 12:24:43;;;;;;;35.13;12.88;;;;;;;;;;5026580;28;20039;-67
2022/03/30 12:27:08;;;;;;;32.90;11.10;;;;;;;;;;5019584;28;20053;-66
2022/03/30 12:29:33;;;;;;;38.47;13.80;;;;;;;;;;5024499;28;20056;-67
2022/03/30 12:31:59;;;;;;;33.40;12.80;;;;;;;;;;5022919;28;20467;-67
2022/03/30 12:34:26;;;;;;;58.30;15.32;;;;;;;;;;5018085;28;20018;-66
2022/03/30 12:36:53;;;;;;;35.25;13.60;;;;;;;;;;5018575;28;20084;-67
2022/03/30 12:39:47;;;;;;;34.10;13.43;;;;;;;;;;5024300;28;20025;-66
2022/03/30 12:42:23;;;;;;;41.13;12.00;;;;;;;;;;5007464;28;20495;-66
2022/03/30 12:44:50;;;;;;;32.22;11.93;;;;;;;;;;5024383;28;20055;-67
2022/03/30 12:47:18;;;;;;;35.92;12.80;;;;;;;;;;5025737;28;20029;-66
2022/03/30 12:49:43;;;;;;;34.53;13.05;;;;;;;;;;5033924;28;20619;-66
2022/03/30 12:52:11;;;;;;;41.28;14.48;;;;;;;;;;5020088;28;20108;-66
2022/03/30 12:54:36;;;;;;;39.08;13.82;;;;;;;;;;5019377;28;20103;-67
2022/03/30 12:57:01;;;;;;;49.10;12.93;;;;;;;;;;5021888;28;20108;-66
2022/03/30 12:59:27;;;;;;;29.85;12.98;;;;;;;;;;5034911;28;20397;-67
2022/03/30 13:01:53;;;;;;;35.00;13.93;;;;;;;;;;5037547;28;20099;-66
2022/03/30 13:04:19;;;;;;;35.28;12.70;;;;;;;;;;5035079;28;20039;-66
2022/03/30 13:07:03;;;;;;;33.47;13.45;;;;;;;;;;5023385;28;20026;-66
2022/03/30 13:09:28;;;;;;;40.58;14.35;;;;;;;;;;5034082;28;20022;-67
2022/03/30 13:11:54;;;;;;;34.70;12.65;;;;;;;;;;5025182;28;20032;-66
2022/03/30 13:14:19;;;;;;;36.92;13.70;;;;;;;;;;5022258;28;20060;-66
2022/03/30 13:16:55;;;;;;;33.00;12.43;;;;;;;;;;5021745;28;20349;-66
2022/03/30 13:19:23;;;;;;;34.03;14.02;;;;;;;;;;5023109;28;20053;-66
2022/03/30 13:21:49;;;;;;;31.55;12.55;;;;;;;;;;5022026;28;20088;-67
2022/03/30 13:24:15;;;;;;;34.33;13.38;;;;;;;;;;5022906;28;20053;-66
2022/03/30 13:26:41;;;;;;;31.75;12.25;;;;;;;;;;5026263;28;20030;-66
2022/03/30 13:29:07;;;;;;;32.13;11.75;;;;;;;;;;5023780;28;20481;-67
2022/03/30 13:31:34;;;;;;;30.50;13.27;;;;;;;;;;5021159;28;20061;-66
2022/03/30 13:34:00;;;;;;;36.17;11.70;;;;;;;;;;5017094;28;20125;-67
2022/03/30 13:36:25;;;;;;;38.90;12.48;;;;;;;;;;5023375;28;20030;-67
2022/03/30 13:38:51;;;;;;;30.63;11.70;;;;;;;;;;5021113;28;20522;-67
2022/03/30 13:41:17;;;;;;;34.85;12.85;;;;;;;;;;5027994;28;20036;-66
2022/03/30 13:43:43;;;;;;;38.15;13.55;;;;;;;;;;5027856;28;20033;-66
2022/03/30 13:46:08;;;;;;;36.55;12.80;;;;;;;;;;5023714;28;20021;-66
2022/03/30 13:48:33;;;;;;;34.88;13.02;;;;;;;;;;5027725;28;20033;-66
2022/03/30 13:51:01;;;;;;;35.23;13.37;;;;;;;;;;5022080;28;20396;-66
2022/03/30 13:53:27;;;;;;;33.28;13.00;;;;;;;;;;5018416;28;20025;-66
2022/03/30 13:55:53;;;;;;;34.25;13.60;;;;;;;;;;5021248;28;20495;-67
2022/03/30 13:58:18;;;;;;;44.63;14.13;;;;;;;;;;5026936;28;20034;-66
2022/03/30 14:00:43;;;;;;;37.07;12.10;;;;;;;;;;5020993;28;20032;-66
2022/03/30 14:03:08;;;;;;;49.88;13.48;;;;;;;;;;5025837;28;20604;-66
2022/03/30 14:05:34;;;;;;;33.10;13.00;;;;;;;;;;5023434;28;20041;-66
2022/03/30 14:07:59;;;;;;;35.15;12.20;;;;;;;;;;5026295;28;20036;-66
2022/03/30 14:10:25;;;;;;;36.20;12.70;;;;;;;;;;5023957;28;20511;-66
2022/03/30 14:12:51;;;;;;;27.50;12.02;;;;;;;;;;5027164;28;20033;-66
2022/03/30 14:15:17;;;;;;;27.77;12.68;;;;;;;;;;5020054;28;20075;-66
2022/03/30 14:17:42;;;;;;;26.17;11.98;;;;;;;;;;5024037;28;20022;-66
2022/03/30 14:20:08;;;;;;;33.07;11.50;;;;;;;;;;5023704;28;20048;-66
2022/03/30 14:22:33;;;;;;;31.25;11.77;;;;;;;;;;5026360;28;20267;-66
2022/03/30 14:24:58;;;;;;;26.23;11.82;;;;;;;;;;5023250;28;20036;-66
2022/03/30 14:27:24;;;;;;;30.23;11.67;;;;;;;;;;5020070;28;20353;-70